Time;durP1;ratioP1;P1;durP2;ratioP2;P2;SDS_P1;SDS_P2;PMS_P1;PMS_P2;Temp;Humidity;BMP_temperature;BMP_pressure;BME280_temperature;BME280_humidity;BME280_pressure;Samples;Min_cycle;Max_cycle;Signal;HPM_P1;HPM_P2
2020/12/12 00:00:57;;;;;;;24.30;12.23;;;3.20;83.90;;;;;;5032966;28;20017;-64
2020/12/12 00:03:23;;;;;;;24.75;13.18;;;3.20;84.10;;;;;;5031663;28;20017;-65
2020/12/12 00:05:48;;;;;;;23.08;12.27;;;3.20;84.20;;;;;;5032958;28;20033;-65
2020/12/12 00:08:14;;;;;;;23.95;12.65;;;3.10;84.30;;;;;;5028399;28;20128;-64
2020/12/12 00:10:39;;;;;;;25.10;13.48;;;3.10;84.40;;;;;;5032512;28;20116;-64
2020/12/12 00:13:08;;;;;;;23.13;12.20;;;3.10;84.40;;;;;;5032562;28;20033;-64
2020/12/12 00:15:34;;;;;;;23.77;12.52;;;3.10;84.60;;;;;;5032553;28;20041;-65
2020/12/12 00:18:00;;;;;;;26.15;13.00;;;3.10;84.50;;;;;;5041027;28;20045;-64
2020/12/12 00:20:25;;;;;;;26.40;12.90;;;3.10;84.40;;;;;;5052575;28;20110;-64
2020/12/12 00:22:51;;;;;;;25.23;12.88;;;3.20;84.50;;;;;;5040091;28;20496;-64
2020/12/12 00:25:16;;;;;;;25.90;13.38;;;3.20;84.40;;;;;;5032510;28;20052;-65
2020/12/12 00:27:42;;;;;;;24.58;13.57;;;3.20;84.40;;;;;;5031903;28;20026;-65
2020/12/12 00:30:08;;;;;;;25.15;12.60;;;3.20;84.30;;;;;;5032292;28;20500;-64
2020/12/12 00:32:33;;;;;;;24.35;13.20;;;3.30;84.20;;;;;;5031527;28;20037;-65
2020/12/12 00:34:59;;;;;;;24.15;12.80;;;3.40;84.10;;;;;;5032812;28;20053;-64
2020/12/12 00:37:25;;;;;;;27.15;13.20;;;3.40;84.50;;;;;;5032140;28;20513;-64
2020/12/12 00:39:50;;;;;;;22.80;12.98;;;3.40;83.90;;;;;;5031518;28;20077;-64
2020/12/12 00:42:16;;;;;;;25.58;13.52;;;3.30;83.90;;;;;;5031544;28;20029;-65
2020/12/12 00:44:41;;;;;;;27.77;13.43;;;3.30;84.00;;;;;;5032162;28;20042;-65
2020/12/12 00:47:07;;;;;;;26.70;12.90;;;3.20;84.20;;;;;;5031918;28;20426;-64
2020/12/12 00:49:33;;;;;;;24.52;12.85;;;3.20;84.30;;;;;;5031853;28;20374;-65
2020/12/12 00:51:58;;;;;;;26.25;13.65;;;3.20;84.40;;;;;;5031688;28;20024;-65
2020/12/12 00:54:24;;;;;;;24.55;13.55;;;3.10;84.40;;;;;;5031449;28;20033;-65
2020/12/12 00:56:50;;;;;;;29.00;13.50;;;3.20;84.50;;;;;;5031838;28;20049;-64
2020/12/12 00:59:18;;;;;;;28.90;14.80;;;3.20;84.40;;;;;;5031687;28;20045;-65
2020/12/12 01:01:45;;;;;;;25.73;12.93;;;3.20;84.30;;;;;;5031508;28;20509;-65
2020/12/12 01:04:11;;;;;;;26.35;13.00;;;3.30;84.20;;;;;;5031834;28;20117;-65
2020/12/12 01:06:36;;;;;;;25.30;13.27;;;3.30;84.10;;;;;;5028766;28;20465;-65
2020/12/12 01:09:02;;;;;;;25.63;13.10;;;3.30;84.10;;;;;;5031926;28;20033;-65
2020/12/12 01:11:28;;;;;;;25.70;13.75;;;3.30;84.10;;;;;;5031325;28;20021;-65
2020/12/12 01:13:53;;;;;;;25.50;12.88;;;3.30;84.10;;;;;;5031155;28;20032;-65
2020/12/12 01:16:19;;;;;;;27.20;13.32;;;3.30;84.10;;;;;;5032299;28;20139;-65
2020/12/12 01:18:44;;;;;;;25.58;13.38;;;3.30;84.10;;;;;;5031611;28;20052;-64
2020/12/12 01:21:15;;;;;;;26.73;13.13;;;3.30;84.10;;;;;;5031780;28;20112;-64
2020/12/12 01:23:41;;;;;;;26.40;13.52;;;3.30;84.10;;;;;;5031589;28;20159;-65
2020/12/12 01:26:07;;;;;;;27.63;14.10;;;3.30;84.00;;;;;;5031741;28;20104;-65
2020/12/12 01:28:34;;;;;;;26.88;14.13;;;3.30;84.10;;;;;;5031770;28;20164;-65
2020/12/12 01:31:00;;;;;;;27.58;13.88;;;3.30;84.10;;;;;;5031029;28;20099;-65
2020/12/12 01:33:25;;;;;;;26.75;14.70;;;3.30;84.10;;;;;;5031597;28;20037;-65
2020/12/12 01:35:51;;;;;;;27.58;13.60;;;3.40;84.10;;;;;;5032026;28;20430;-65
2020/12/12 01:38:16;;;;;;;28.05;14.40;;;3.40;84.20;;;;;;5031385;28;20096;-66
2020/12/12 01:40:42;;;;;;;28.00;13.55;;;3.40;84.20;;;;;;5030865;28;20025;-64
2020/12/12 01:43:09;;;;;;;28.33;13.48;;;3.40;84.20;;;;;;5031514;28;20482;-63
2020/12/12 01:45:35;;;;;;;26.10;13.43;;;3.40;84.20;;;;;;5031851;28;20054;-64
2020/12/12 01:48:01;;;;;;;26.15;13.40;;;3.50;84.30;;;;;;5031628;28;20529;-64
2020/12/12 01:50:28;;;;;;;28.48;13.98;;;3.50;84.10;;;;;;5031306;28;20033;-64
2020/12/12 01:52:55;;;;;;;27.38;13.63;;;3.50;84.10;;;;;;5031185;28;20033;-64
2020/12/12 01:55:20;;;;;;;27.50;14.75;;;3.40;84.20;;;;;;5031376;28;20532;-65
2020/12/12 01:57:53;;;;;;;26.52;14.05;;;3.40;84.30;;;;;;5031487;28;20022;-64
2020/12/12 02:00:21;;;;;;;26.73;14.00;;;3.30;84.40;;;;;;5030764;28;20172;-64
2020/12/12 02:02:52;;;;;;;28.02;13.93;;;3.20;84.50;;;;;;5033302;28;20049;-64
2020/12/12 02:05:43;;;;;;;26.65;13.70;;;3.20;84.70;;;;;;5035128;28;20033;-64
2020/12/12 02:08:16;;;;;;;22.15;12.93;;;3.20;84.90;;;;;;5034186;28;20022;-64
2020/12/12 02:10:44;;;;;;;29.55;14.38;;;3.20;85.40;;;;;;5028843;28;20044;-64
2020/12/12 02:13:11;;;;;;;28.40;14.13;;;3.30;85.00;;;;;;5034788;28;20056;-64
2020/12/12 02:15:37;;;;;;;25.20;13.68;;;3.30;84.90;;;;;;5034410;28;20045;-64
2020/12/12 02:18:21;;;;;;;26.00;13.98;;;3.30;84.80;;;;;;5034073;28;20024;-64
2020/12/12 02:20:58;;;;;;;26.90;13.07;;;3.30;85.30;;;;;;5034635;28;20028;-64
2020/12/12 02:23:24;;;;;;;25.17;13.05;;;3.30;84.80;;;;;;5034557;28;20029;-64
2020/12/12 02:25:50;;;;;;;28.02;13.65;;;3.30;84.70;;;;;;5034272;28;20378;-64
2020/12/12 02:28:20;;;;;;;24.63;13.20;;;3.30;84.60;;;;;;5034699;28;20021;-64
2020/12/12 02:30:45;;;;;;;24.45;12.85;;;3.30;84.50;;;;;;5033981;28;20017;-65
2020/12/12 02:33:11;;;;;;;23.70;13.32;;;3.30;84.40;;;;;;5034463;28;20151;-65
2020/12/12 02:35:37;;;;;;;25.27;13.30;;;3.30;84.40;;;;;;5034502;28;20101;-65
2020/12/12 02:38:03;;;;;;;23.95;13.38;;;3.30;84.30;;;;;;5034808;28;20053;-65
2020/12/12 02:40:28;;;;;;;29.15;14.07;;;3.30;84.90;;;;;;5034101;28;20026;-65
2020/12/12 02:42:54;;;;;;;28.00;13.52;;;3.30;84.30;;;;;;5034042;28;20033;-65
2020/12/12 02:45:20;;;;;;;24.23;13.32;;;3.20;84.40;;;;;;5034459;28;20109;-64
2020/12/12 02:47:46;;;;;;;25.90;13.63;;;3.10;84.60;;;;;;5033978;28;20171;-65
2020/12/12 02:50:14;;;;;;;27.45;15.38;;;3.10;85.00;;;;;;5033952;28;20021;-64
2020/12/12 02:52:42;;;;;;;26.38;14.32;;;3.00;85.20;;;;;;5016757;28;20041;-65
2020/12/12 02:55:13;;;;;;;30.38;14.23;;;3.10;85.30;;;;;;5028348;28;20378;-65
2020/12/12 02:57:38;;;;;;;28.88;15.00;;;3.10;85.30;;;;;;5014660;28;20389;-64
2020/12/12 03:00:10;;;;;;;26.85;13.88;;;3.10;85.30;;;;;;5033624;28;20177;-65
2020/12/12 03:02:36;;;;;;;27.42;14.25;;;3.10;85.30;;;;;;5034129;28;20042;-64
2020/12/12 03:05:02;;;;;;;28.35;13.68;;;3.10;85.30;;;;;;5034484;28;20486;-65
2020/12/12 03:07:27;;;;;;;26.75;13.57;;;3.10;85.40;;;;;;5022414;28;20593;-65
2020/12/12 03:09:53;;;;;;;28.80;13.98;;;3.20;85.40;;;;;;5029696;28;20108;-65
2020/12/12 03:12:18;;;;;;;26.95;14.45;;;3.20;85.20;;;;;;5033090;28;20121;-65
2020/12/12 03:14:44;;;;;;;30.83;15.27;;;3.30;85.20;;;;;;5034554;28;20130;-64
2020/12/12 03:17:09;;;;;;;27.70;14.68;;;3.40;85.10;;;;;;5032998;28;20035;-65
2020/12/12 03:19:38;;;;;;;30.98;15.85;;;3.40;84.80;;;;;;5033286;28;20033;-64
2020/12/12 03:22:05;;;;;;;28.85;15.20;;;3.50;84.80;;;;;;5034060;28;20053;-64
2020/12/12 03:24:31;;;;;;;27.50;14.57;;;3.50;84.80;;;;;;5033441;28;20021;-65
2020/12/12 03:26:56;;;;;;;29.00;14.70;;;3.60;84.60;;;;;;5033748;28;21273;-64
2020/12/12 03:29:22;;;;;;;29.13;14.82;;;3.60;84.60;;;;;;5033058;28;20116;-65
2020/12/12 03:31:48;;;;;;;27.48;14.93;;;3.70;84.50;;;;;;5032944;28;20069;-64
2020/12/12 03:34:13;;;;;;;28.38;14.50;;;3.70;84.40;;;;;;5015470;28;20120;-65
2020/12/12 03:36:39;;;;;;;26.42;14.20;;;3.70;84.30;;;;;;5033719;28;20034;-64
2020/12/12 03:39:04;;;;;;;27.60;14.90;;;3.80;84.30;;;;;;5032801;28;20041;-65
2020/12/12 03:41:30;;;;;;;28.30;14.80;;;3.80;84.30;;;;;;5032962;28;20025;-65
2020/12/12 03:43:56;;;;;;;26.05;14.07;;;3.80;84.30;;;;;;5015271;28;20037;-64
2020/12/12 03:46:21;;;;;;;25.80;14.52;;;3.80;84.30;;;;;;5033250;28;20491;-65
2020/12/12 03:48:47;;;;;;;29.73;15.35;;;3.90;84.30;;;;;;5032751;28;20037;-64
2020/12/12 03:51:12;;;;;;;25.95;14.15;;;3.90;84.20;;;;;;5032971;28;20037;-64
2020/12/12 03:53:38;;;;;;;26.73;14.38;;;3.90;84.30;;;;;;5032570;28;20036;-64
2020/12/12 03:56:03;;;;;;;24.20;13.80;;;3.90;84.10;;;;;;5033212;28;20034;-65
2020/12/12 03:58:29;;;;;;;24.63;13.75;;;3.90;84.10;;;;;;5032918;28;20390;-65
2020/12/12 04:00:55;;;;;;;29.55;14.68;;;3.80;84.00;;;;;;5014945;28;20025;-64
2020/12/12 04:03:21;;;;;;;28.83;15.07;;;3.80;84.20;;;;;;5031599;28;20123;-65
2020/12/12 04:05:47;;;;;;;21.88;13.13;;;3.80;84.20;;;;;;5033375;28;20499;-64
2020/12/12 04:08:12;;;;;;;26.35;13.73;;;3.70;84.10;;;;;;5032349;28;20025;-65
2020/12/12 04:10:38;;;;;;;29.90;14.30;;;3.70;84.20;;;;;;5032570;28;20057;-65
2020/12/12 04:13:04;;;;;;;27.60;14.32;;;3.60;84.30;;;;;;5032354;28;20359;-65
2020/12/12 04:15:29;;;;;;;26.42;13.63;;;3.60;84.40;;;;;;5032583;28;20021;-64
2020/12/12 04:17:55;;;;;;;22.58;12.73;;;3.60;84.60;;;;;;5032428;28;20434;-65
2020/12/12 04:20:20;;;;;;;24.52;13.32;;;3.60;84.60;;;;;;5032661;28;20373;-65
2020/12/12 04:22:46;;;;;;;27.55;14.32;;;3.50;84.60;;;;;;5032685;28;20068;-64
2020/12/12 04:25:12;;;;;;;25.88;14.57;;;3.60;84.60;;;;;;5031771;28;20080;-64
2020/12/12 04:27:37;;;;;;;27.85;14.95;;;3.60;84.70;;;;;;5014241;28;20137;-65
2020/12/12 04:30:04;;;;;;;27.35;14.38;;;3.60;84.90;;;;;;5032388;28;20025;-65
2020/12/12 04:32:30;;;;;;;26.13;13.23;;;3.70;84.90;;;;;;5031391;28;20084;-65
2020/12/12 04:34:55;;;;;;;26.23;14.10;;;3.70;84.60;;;;;;5032388;28;20426;-65
2020/12/12 04:37:21;;;;;;;26.55;13.80;;;3.70;84.60;;;;;;5019345;28;20033;-65
2020/12/12 04:39:47;;;;;;;24.33;13.98;;;3.80;84.70;;;;;;5014272;28;20123;-65
2020/12/12 04:42:16;;;;;;;27.00;13.93;;;3.90;84.60;;;;;;5029563;28;20060;-65
2020/12/12 04:44:43;;;;;;;29.50;15.27;;;3.90;84.50;;;;;;5030943;28;20112;-65
2020/12/12 04:47:09;;;;;;;25.02;13.75;;;3.90;84.40;;;;;;5029003;28;20069;-65
2020/12/12 04:49:35;;;;;;;24.67;13.68;;;4.00;84.40;;;;;;5028865;28;20029;-65
2020/12/12 04:52:04;;;;;;;26.15;13.73;;;4.00;84.40;;;;;;5030915;28;20457;-65
2020/12/12 04:54:36;;;;;;;27.48;15.05;;;3.90;84.40;;;;;;5031649;28;20482;-65
2020/12/12 04:57:03;;;;;;;28.52;14.10;;;3.90;84.40;;;;;;5013167;28;20478;-64
2020/12/12 04:59:34;;;;;;;24.60;14.30;;;4.00;84.50;;;;;;5029958;28;20116;-64
2020/12/12 05:02:03;;;;;;;29.63;15.45;;;4.00;84.60;;;;;;5031338;28;20037;-65
2020/12/12 05:04:29;;;;;;;29.00;15.80;;;4.10;84.50;;;;;;5030578;28;20482;-65
2020/12/12 05:06:55;;;;;;;28.20;15.05;;;4.10;84.10;;;;;;5027772;28;20440;-64
2020/12/12 05:09:20;;;;;;;26.25;13.93;;;4.10;84.20;;;;;;5030315;28;20048;-64
2020/12/12 05:11:47;;;;;;;24.17;13.15;;;4.10;84.10;;;;;;5031792;28;20354;-65
2020/12/12 05:14:16;;;;;;;27.65;15.00;;;4.10;84.20;;;;;;5013017;28;20562;-64
2020/12/12 05:16:45;;;;;;;24.75;13.55;;;4.10;84.30;;;;;;5030508;28;20033;-66
2020/12/12 05:19:13;;;;;;;26.08;13.88;;;4.10;84.30;;;;;;5012286;28;20045;-65
2020/12/12 05:21:46;;;;;;;27.88;15.02;;;4.00;84.20;;;;;;5031359;28;20505;-65
2020/12/12 05:24:11;;;;;;;25.63;12.50;;;4.00;84.30;;;;;;5028604;28;20030;-65
2020/12/12 05:26:37;;;;;;;22.40;11.82;;;4.00;84.40;;;;;;5031976;28;20359;-64
2020/12/12 05:29:05;;;;;;;22.75;13.23;;;3.90;84.30;;;;;;5031635;28;20038;-65
2020/12/12 05:31:30;;;;;;;19.45;11.73;;;3.90;84.40;;;;;;5031685;28;20552;-65
2020/12/12 05:33:56;;;;;;;20.85;11.75;;;3.90;84.50;;;;;;5031962;28;20033;-65
2020/12/12 05:36:26;;;;;;;20.60;12.10;;;3.80;84.40;;;;;;5034111;28;20029;-65
2020/12/12 05:39:01;;;;;;;22.10;12.65;;;3.80;84.50;;;;;;5035725;28;20042;-64
2020/12/12 05:41:27;;;;;;;20.80;12.60;;;3.80;84.50;;;;;;5035659;28;20060;-64
2020/12/12 05:43:53;;;;;;;22.17;11.15;;;3.70;84.40;;;;;;5035922;28;20057;-64
2020/12/12 05:46:24;;;;;;;22.05;12.05;;;3.70;84.40;;;;;;5035329;28;20034;-65
2020/12/12 05:48:53;;;;;;;18.75;11.32;;;3.70;84.60;;;;;;5017768;28;20033;-65
2020/12/12 05:51:20;;;;;;;19.95;11.65;;;3.70;84.60;;;;;;5017230;28;20018;-64
2020/12/12 05:53:47;;;;;;;21.80;12.50;;;3.70;84.60;;;;;;5035346;28;20397;-64
2020/12/12 05:56:14;;;;;;;19.08;11.98;;;3.70;84.70;;;;;;5035380;28;20024;-65
2020/12/12 05:58:43;;;;;;;21.75;12.85;;;3.70;84.70;;;;;;5035184;28;20498;-65
2020/12/12 06:01:18;;;;;;;18.27;10.82;;;3.70;84.70;;;;;;5035449;28;20132;-65
2020/12/12 06:03:54;;;;;;;22.15;12.20;;;3.80;84.70;;;;;;5034687;28;20033;-65
2020/12/12 06:06:24;;;;;;;21.25;12.00;;;3.70;84.70;;;;;;5032300;28;20025;-65
2020/12/12 06:09:01;;;;;;;23.30;11.75;;;3.80;84.70;;;;;;5032294;28;20045;-64
2020/12/12 06:11:31;;;;;;;23.70;12.40;;;3.80;84.70;;;;;;5034771;28;20350;-65
2020/12/12 06:13:59;;;;;;;20.25;11.80;;;3.80;84.70;;;;;;5035167;28;20489;-65
2020/12/12 06:16:27;;;;;;;20.30;11.63;;;3.80;84.60;;;;;;5035348;28;20033;-65
2020/12/12 06:19:06;;;;;;;18.58;11.52;;;3.90;84.50;;;;;;5034995;28;20493;-65
2020/12/12 06:21:33;;;;;;;19.80;11.60;;;3.90;84.50;;;;;;5035171;28;20056;-64
2020/12/12 06:24:00;;;;;;;20.10;11.60;;;3.90;84.50;;;;;;5034409;28;20120;-64
2020/12/12 06:26:35;;;;;;;20.95;11.90;;;3.90;84.50;;;;;;5033355;28;20045;-64
2020/12/12 06:29:00;;;;;;;20.33;11.52;;;3.80;84.50;;;;;;5034608;28;20034;-65
2020/12/12 06:31:27;;;;;;;18.50;11.55;;;3.90;84.60;;;;;;5034171;28;20017;-65
2020/12/12 06:33:54;;;;;;;20.10;11.27;;;3.90;84.70;;;;;;5034597;28;20029;-65
2020/12/12 06:36:26;;;;;;;19.92;11.73;;;3.90;84.70;;;;;;5034811;28;20049;-65
2020/12/12 06:39:24;;;;;;;19.77;11.20;;;3.90;84.60;;;;;;5031957;28;20540;-65
2020/12/12 06:41:57;;;;;;;18.30;10.85;;;3.90;84.60;;;;;;5034519;28;20036;-65
2020/12/12 06:44:38;;;;;;;20.02;11.18;;;4.00;84.60;;;;;;5034352;28;20382;-65
2020/12/12 06:47:05;;;;;;;18.15;11.27;;;4.00;84.60;;;;;;5033769;28;20026;-65
2020/12/12 06:49:31;;;;;;;21.17;12.50;;;4.00;84.60;;;;;;5034167;28;20080;-65
2020/12/12 06:51:58;;;;;;;19.95;11.32;;;4.00;84.50;;;;;;5034673;28;20028;-64
2020/12/12 06:54:24;;;;;;;22.65;12.27;;;4.00;84.60;;;;;;5034033;28;20046;-65
2020/12/12 06:56:50;;;;;;;21.23;11.98;;;4.10;84.50;;;;;;5034403;28;20519;-64
2020/12/12 06:59:35;;;;;;;22.35;12.55;;;4.10;84.40;;;;;;5033717;28;20026;-64
2020/12/12 07:02:06;;;;;;;21.05;11.70;;;4.10;84.30;;;;;;5015437;28;20021;-65
2020/12/12 07:04:34;;;;;;;21.58;11.85;;;4.10;84.30;;;;;;5031734;28;20057;-64
2020/12/12 07:07:11;;;;;;;21.20;11.48;;;4.10;84.40;;;;;;5034067;28;20068;-64
2020/12/12 07:09:41;;;;;;;19.40;11.73;;;4.10;84.40;;;;;;5033390;28;20029;-65
2020/12/12 07:12:08;;;;;;;22.15;11.52;;;4.10;84.40;;;;;;5032444;28;20025;-65
2020/12/12 07:14:36;;;;;;;22.65;12.32;;;4.10;84.40;;;;;;5033969;28;20037;-65
2020/12/12 07:17:02;;;;;;;20.35;10.93;;;4.00;84.40;;;;;;5033714;28;20021;-65
2020/12/12 07:19:39;;;;;;;19.02;11.23;;;4.00;84.40;;;;;;5034152;28;20032;-65
2020/12/12 07:22:07;;;;;;;20.98;11.55;;;4.00;84.50;;;;;;5025724;28;20076;-65
2020/12/12 07:24:33;;;;;;;20.58;11.32;;;4.00;84.50;;;;;;5033971;28;20574;-65
2020/12/12 07:26:59;;;;;;;20.35;10.95;;;3.90;84.50;;;;;;5033215;28;20112;-65
2020/12/12 07:29:26;;;;;;;21.25;11.35;;;3.90;84.50;;;;;;5032740;28;20029;-65
2020/12/12 07:31:51;;;;;;;20.35;11.32;;;3.90;84.60;;;;;;5033773;28;20235;-64
2020/12/12 07:34:21;;;;;;;17.63;10.68;;;3.90;84.70;;;;;;5033413;28;20033;-64
2020/12/12 07:37:17;;;;;;;19.33;11.68;;;3.90;84.70;;;;;;5015318;28;20030;-65
2020/12/12 07:39:43;;;;;;;24.48;12.38;;;3.90;84.80;;;;;;5019764;28;20057;-64
2020/12/12 07:42:10;;;;;;;21.95;11.38;;;3.90;84.80;;;;;;5033786;28;20053;-64
2020/12/12 07:44:39;;;;;;;23.25;11.85;;;3.90;84.80;;;;;;5030852;28;20041;-65
2020/12/12 07:47:13;;;;;;;21.00;11.93;;;4.00;84.80;;;;;;5033425;28;20101;-65
2020/12/12 07:49:39;;;;;;;18.77;10.75;;;4.00;84.70;;;;;;5032166;28;20489;-64
2020/12/12 07:52:12;;;;;;;21.55;11.23;;;4.00;84.70;;;;;;5032006;28;20452;-64
2020/12/12 07:54:46;;;;;;;21.38;11.60;;;4.00;84.70;;;;;;5032040;28;20500;-64
2020/12/12 07:57:13;;;;;;;22.73;12.23;;;4.10;84.80;;;;;;5030601;28;20540;-64
2020/12/12 07:59:40;;;;;;;26.27;12.75;;;4.10;84.80;;;;;;5032193;28;20021;-64
2020/12/12 08:02:07;;;;;;;23.02;12.93;;;4.20;84.80;;;;;;5032457;28;20477;-65
2020/12/12 08:04:33;;;;;;;22.65;12.40;;;4.30;84.80;;;;;;5032830;28;20178;-64
2020/12/12 08:07:19;;;;;;;24.73;13.40;;;4.30;84.70;;;;;;5025885;28;20386;-64
2020/12/12 08:09:49;;;;;;;20.20;11.63;;;4.40;84.70;;;;;;5013260;28;20042;-64
2020/12/12 08:12:31;;;;;;;20.90;11.27;;;4.50;84.60;;;;;;5032076;28;20030;-64
2020/12/12 08:15:16;;;;;;;16.83;10.35;;;4.50;84.40;;;;;;5033301;28;20374;-64
2020/12/12 08:17:42;;;;;;;17.40;9.90;;;4.50;84.30;;;;;;5032788;28;20389;-64
2020/12/12 08:20:25;;;;;;;20.80;10.95;;;4.50;84.10;;;;;;5032557;28;20033;-64
2020/12/12 08:22:51;;;;;;;17.77;9.95;;;4.50;84.20;;;;;;5033081;28;20118;-64
2020/12/12 08:25:19;;;;;;;17.08;10.35;;;4.50;84.20;;;;;;5032756;28;20120;-64
2020/12/12 08:27:45;;;;;;;18.23;10.30;;;4.60;84.30;;;;;;5015450;28;20494;-64
2020/12/12 08:30:10;;;;;;;21.00;11.75;;;4.60;84.40;;;;;;5032427;28;20013;-64
2020/12/12 08:32:37;;;;;;;21.75;11.80;;;4.60;84.50;;;;;;5033149;28;20164;-64
2020/12/12 08:35:15;;;;;;;19.73;11.43;;;4.70;84.50;;;;;;5033022;28;20025;-64
2020/12/12 08:38:04;;;;;;;24.88;12.73;;;4.70;84.40;;;;;;5032752;28;20140;-63
2020/12/12 08:40:43;;;;;;;21.50;12.70;;;4.70;84.20;;;;;;5012701;28;20029;-63
2020/12/12 08:43:09;;;;;;;21.95;12.95;;;4.80;84.20;;;;;;5021431;28;20029;-63
2020/12/12 08:45:43;;;;;;;29.95;15.55;;;4.80;84.40;;;;;;5032267;28;20037;-63
2020/12/12 08:48:10;;;;;;;27.38;14.30;;;4.90;84.40;;;;;;5032188;28;20037;-63
2020/12/12 08:50:46;;;;;;;24.35;13.07;;;4.90;84.20;;;;;;5032161;28;20017;-64
2020/12/12 08:53:26;;;;;;;22.90;13.48;;;5.00;84.10;;;;;;5032432;28;20092;-63
2020/12/12 08:56:08;;;;;;;23.25;14.38;;;4.90;84.00;;;;;;5032378;28;20025;-63
2020/12/12 08:58:41;;;;;;;21.92;13.02;;;4.90;84.10;;;;;;5031957;28;20466;-63
2020/12/12 09:01:10;;;;;;;22.67;12.88;;;4.90;84.10;;;;;;5031875;28;20025;-63
2020/12/12 09:03:46;;;;;;;22.45;13.10;;;5.00;84.10;;;;;;5032198;28;20498;-63
2020/12/12 09:06:11;;;;;;;25.17;13.60;;;5.00;84.00;;;;;;5030921;28;20044;-63
2020/12/12 09:08:37;;;;;;;22.75;13.15;;;5.00;84.00;;;;;;5012689;28;20019;-63
2020/12/12 09:11:11;;;;;;;27.83;13.70;;;5.00;84.20;;;;;;5011224;28;20026;-64
2020/12/12 09:13:36;;;;;;;22.23;13.73;;;5.10;84.10;;;;;;5027402;28;20482;-64
2020/12/12 09:16:02;;;;;;;23.67;13.88;;;5.10;84.10;;;;;;5032310;28;20117;-63
2020/12/12 09:18:27;;;;;;;22.23;12.68;;;5.10;84.00;;;;;;5029448;28;20038;-63
2020/12/12 09:20:53;;;;;;;20.75;12.70;;;5.20;83.90;;;;;;5031808;28;20406;-63
2020/12/12 09:23:19;;;;;;;23.77;13.30;;;5.20;83.90;;;;;;5030871;28;20053;-63
2020/12/12 09:25:45;;;;;;;23.92;12.40;;;5.20;83.90;;;;;;5032616;28;20424;-63
2020/12/12 09:28:10;;;;;;;20.73;12.50;;;5.30;84.00;;;;;;5031881;28;20501;-63
2020/12/12 09:30:36;;;;;;;22.98;13.57;;;5.40;84.00;;;;;;5010424;28;20037;-63
2020/12/12 09:33:01;;;;;;;21.75;12.68;;;5.40;83.80;;;;;;5013546;28;20370;-63
2020/12/12 09:35:27;;;;;;;20.35;11.93;;;5.50;83.70;;;;;;5031742;28;20112;-64
2020/12/12 09:37:54;;;;;;;19.48;11.43;;;5.50;83.60;;;;;;5031243;28;20022;-63
2020/12/12 09:40:19;;;;;;;26.58;14.63;;;5.60;83.70;;;;;;5030173;28;20125;-63
2020/12/12 09:42:45;;;;;;;21.08;11.93;;;5.70;83.70;;;;;;5028552;28;20109;-64
2020/12/12 09:45:10;;;;;;;17.27;11.07;;;5.70;83.50;;;;;;5031497;28;20034;-65
2020/12/12 09:47:36;;;;;;;22.63;12.40;;;5.80;83.20;;;;;;5030092;28;20033;-65
2020/12/12 09:50:01;;;;;;;17.70;10.57;;;5.90;83.10;;;;;;5031068;28;20029;-65
2020/12/12 09:52:27;;;;;;;16.50;10.77;;;5.90;83.10;;;;;;5031012;28;20032;-64
2020/12/12 09:54:52;;;;;;;21.70;12.43;;;6.00;83.10;;;;;;5031432;28;20029;-65
2020/12/12 09:57:18;;;;;;;20.92;13.15;;;6.10;83.10;;;;;;5030884;28;20035;-64
2020/12/12 09:59:43;;;;;;;22.38;13.00;;;6.10;83.10;;;;;;5031577;28;20097;-65
2020/12/12 10:02:09;;;;;;;15.10;9.20;;;6.20;82.90;;;;;;5031111;28;20419;-65
2020/12/12 10:04:34;;;;;;;18.55;9.98;;;6.20;82.80;;;;;;5030313;28;20029;-65
2020/12/12 10:07:00;;;;;;;20.00;12.10;;;6.20;82.90;;;;;;5031254;28;20056;-65
2020/12/12 10:09:26;;;;;;;21.95;11.15;;;6.30;83.00;;;;;;5031272;28;20104;-65
2020/12/12 10:11:51;;;;;;;19.02;10.60;;;6.30;82.80;;;;;;5031640;28;20548;-65
2020/12/12 10:14:17;;;;;;;17.23;10.23;;;6.30;82.90;;;;;;5020645;28;20076;-65
2020/12/12 10:16:43;;;;;;;13.68;9.48;;;6.30;83.00;;;;;;5029404;28;20044;-65
2020/12/12 10:19:09;;;;;;;15.07;10.40;;;6.30;83.20;;;;;;5029180;28;20033;-66
2020/12/12 10:21:34;;;;;;;14.07;8.88;;;6.30;83.20;;;;;;5012216;28;20034;-66
2020/12/12 10:24:00;;;;;;;13.93;8.85;;;6.30;83.30;;;;;;5013373;28;20030;-66
2020/12/12 10:26:25;;;;;;;12.30;7.95;;;6.30;83.20;;;;;;5033545;28;20105;-66
2020/12/12 10:28:51;;;;;;;14.70;8.73;;;6.30;83.20;;;;;;5031702;28;20167;-67
2020/12/12 10:31:17;;;;;;;12.77;8.13;;;6.30;83.30;;;;;;5030897;28;20025;-66
2020/12/12 10:33:43;;;;;;;17.17;9.15;;;6.30;83.40;;;;;;5033106;28;20026;-65
2020/12/12 10:36:08;;;;;;;13.88;7.13;;;6.30;83.60;;;;;;5016676;28;20030;-66
2020/12/12 10:38:35;;;;;;;11.48;7.78;;;6.30;83.60;;;;;;5033518;28;20045;-66
2020/12/12 10:41:04;;;;;;;13.77;7.22;;;6.30;83.50;;;;;;5033089;28;20107;-66
2020/12/12 10:43:29;;;;;;;10.40;6.38;;;6.30;83.70;;;;;;5034508;28;20053;-66
2020/12/12 10:45:55;;;;;;;10.00;6.20;;;6.30;83.70;;;;;;5034295;28;20119;-66
2020/12/12 10:48:23;;;;;;;9.52;6.32;;;6.30;83.70;;;;;;5034098;28;20033;-66
2020/12/12 10:50:48;;;;;;;10.13;6.55;;;6.40;83.80;;;;;;5033411;28;20032;-66
2020/12/12 10:53:14;;;;;;;9.40;6.35;;;6.40;83.70;;;;;;5034696;28;20100;-66
2020/12/12 10:55:39;;;;;;;11.02;6.45;;;6.40;83.70;;;;;;5015057;28;20082;-66
2020/12/12 10:58:05;;;;;;;10.13;6.45;;;6.40;83.70;;;;;;5034129;28;20464;-66
2020/12/12 11:00:39;;;;;;;10.60;5.82;;;6.30;84.30;;;;;;5033248;28;20034;-66
2020/12/12 11:03:05;;;;;;;10.98;6.60;;;6.30;83.90;;;;;;5033408;28;20041;-66
2020/12/12 11:05:31;;;;;;;11.77;6.53;;;6.30;84.00;;;;;;5033745;28;20037;-66
2020/12/12 11:07:56;;;;;;;9.77;6.25;;;6.30;84.10;;;;;;5017816;28;20038;-66
2020/12/12 11:10:22;;;;;;;10.25;6.38;;;6.30;84.10;;;;;;5013342;28;20036;-65
2020/12/12 11:12:49;;;;;;;11.82;7.28;;;6.30;84.10;;;;;;5014333;28;20051;-65
2020/12/12 11:15:15;;;;;;;10.05;6.35;;;6.40;84.10;;;;;;5033626;28;20033;-65
2020/12/12 11:17:40;;;;;;;9.75;6.18;;;6.40;84.20;;;;;;5032560;28;20030;-67
2020/12/12 11:20:06;;;;;;;10.75;6.28;;;6.40;84.10;;;;;;5032254;28;20398;-66
2020/12/12 11:22:31;;;;;;;11.90;6.40;;;6.40;84.20;;;;;;5034373;28;20040;-66
2020/12/12 11:24:57;;;;;;;9.77;6.07;;;6.40;84.30;;;;;;5033854;28;20034;-66
2020/12/12 11:27:22;;;;;;;12.00;7.18;;;6.40;84.40;;;;;;5034339;28;20028;-66
2020/12/12 11:29:48;;;;;;;12.00;6.97;;;6.40;84.50;;;;;;5033192;28;20028;-68
2020/12/12 11:32:14;;;;;;;14.35;6.50;;;6.40;84.60;;;;;;5033638;28;20482;-66
2020/12/12 11:34:43;;;;;;;9.13;6.13;;;6.40;84.60;;;;;;5034094;28;20076;-66
2020/12/12 11:39:49;;;;;;;13.80;7.72;;;6.40;84.90;;;;;;5033598;28;20116;-65
2020/12/12 11:42:42;;;;;;;11.98;7.43;;;6.40;85.00;;;;;;5033315;28;20048;-66
2020/12/12 11:47:42;;;;;;;9.00;5.85;;;6.40;85.00;;;;;;5033640;28;20353;-66
2020/12/12 11:50:08;;;;;;;11.98;7.28;;;6.40;85.10;;;;;;5032337;28;20462;-66
2020/12/12 11:52:43;;;;;;;14.52;7.30;;;6.50;85.40;;;;;;5032345;28;20037;-66
2020/12/12 11:55:09;;;;;;;10.88;6.22;;;6.50;85.70;;;;;;5032570;28;20029;-66
2020/12/12 11:57:35;;;;;;;10.85;6.57;;;6.50;85.60;;;;;;5033168;28;20433;-66
2020/12/12 12:00:07;;;;;;;9.82;6.95;;;6.60;85.60;;;;;;5033576;28;20044;-66
2020/12/12 12:02:32;;;;;;;10.15;6.50;;;6.60;85.60;;;;;;5033260;28;20037;-65
2020/12/12 12:04:58;;;;;;;10.52;6.40;;;6.60;85.50;;;;;;5033474;28;20032;-66
2020/12/12 12:07:23;;;;;;;11.35;6.40;;;6.70;85.60;;;;;;5022655;28;20032;-66
2020/12/12 12:09:52;;;;;;;10.05;6.60;;;6.80;85.60;;;;;;5012653;28;20092;-66
2020/12/12 12:12:18;;;;;;;9.65;6.40;;;6.80;85.50;;;;;;5013186;28;20032;-67
2020/12/12 12:14:43;;;;;;;9.98;6.90;;;6.70;85.40;;;;;;5013296;28;20489;-66
2020/12/12 12:17:09;;;;;;;7.90;5.93;;;6.80;85.50;;;;;;5030191;28;20386;-66
2020/12/12 12:19:34;;;;;;;9.65;6.53;;;6.70;85.50;;;;;;5017794;28;20497;-66
2020/12/12 12:22:00;;;;;;;8.05;5.40;;;6.70;85.70;;;;;;5027080;28;20478;-65
2020/12/12 12:24:25;;;;;;;10.80;6.28;;;6.60;85.80;;;;;;5032724;28;20481;-66
2020/12/12 12:26:51;;;;;;;8.88;5.97;;;6.60;86.00;;;;;;5032429;28;20160;-66
2020/12/12 12:29:20;;;;;;;11.85;7.00;;;6.60;86.10;;;;;;5032478;28;20036;-66
2020/12/12 12:31:47;;;;;;;10.32;6.40;;;6.60;86.70;;;;;;5031803;28;20029;-66
2020/12/12 12:34:13;;;;;;;11.38;7.35;;;6.70;86.30;;;;;;5014950;28;20048;-66
2020/12/12 12:36:40;;;;;;;12.52;7.32;;;6.70;86.20;;;;;;5032680;28;20489;-66
2020/12/12 12:39:08;;;;;;;9.13;6.20;;;6.70;86.30;;;;;;5032289;28;20041;-66
2020/12/12 12:41:34;;;;;;;11.65;6.70;;;6.80;86.30;;;;;;5032803;28;20017;-66
2020/12/12 12:44:05;;;;;;;9.90;6.63;;;6.80;86.30;;;;;;5031780;28;20394;-66
2020/12/12 12:46:33;;;;;;;10.43;6.70;;;6.80;86.20;;;;;;5014439;28;20029;-66
2020/12/12 12:48:58;;;;;;;11.77;7.65;;;6.80;86.30;;;;;;5032138;28;20040;-66